Nearby METAR Reports

 

LFRV - Vannes-Meucon, FRANCE
Distance from station: NE 28km
Mise à jour: 26/05/2019 07:00
Couvert
Couvert
 Wind from varies
Vent: varies 4 km/h
Température: 13°C
Point de rosée: 12°C
Humidité: 94%
Baromètre: 1020 hPa
Clouds: Couvert
Visibility: 10 km
Cloud details: nuageux 183 m
nuageux 579 m
Couvert 884 m
2019/05/26 05:00 LFRV 260500Z AUTO VRB02KT 9999 BKN006 BKN019 OVC029 13/12 Q1020
LFRZ - Saint - Nazaire / Montoir, FRANCE
Distance from station: SE 64km
Mise à jour: 26/05/2019 07:00
Couvert
Couvert
 Wind from ONO
Vent: ONO 7 km/h
Température: 12°C
Point de rosée: 12°C
Humidité: 100%
Baromètre: 1020 hPa
Clouds: Couvert
Visibility: 10 km
Cloud details: Couvert 762 m
2019/05/26 05:00 LFRZ 260500Z AUTO 30004KT 9999 OVC025 12/12 Q1020 TEMPO 0500 FG VV///
 
LFRH - Lorient / Lann- Bihoué, FRANCE
Distance from station: NO 81km
Mise à jour: 26/05/2019 07:00
Couvert
Couvert
 Wind from O
Vent: O 7 km/h
Température: 13°C
Point de rosée: 11°C
Humidité: 88%
Baromètre: 1021 hPa
Clouds: Couvert
Visibility: 10 km
Cloud details: Peu nuageux 457 m
Couvert 671 m
2019/05/26 05:00 LFRH 260500Z AUTO 27004KT 250V310 9999 FEW015 OVC022 13/11 Q1021 TEMPO BKN005 BKN015
LFRB - Brest - Guipavas, FRANCE
Distance from station: NO 200km
Mise à jour: 26/05/2019 07:00
Couvert
Couvert
 Wind from O
Vent: O 9 km/h
Température: 12°C
Point de rosée: 11°C
Humidité: 94%
Baromètre: 1020 hPa
Clouds: Couvert
Visibility: 10 km
Cloud details: Peu nuageux 213 m
nuageux 488 m
Couvert 640 m
2019/05/26 05:00 LFRB 260500Z AUTO 27005KT 9999 FEW007 BKN016 OVC021 12/11 Q1020 TEMPO 2000 -RADZ OVC003
 
LFPV - Villacoublay - Vélizy/, FRANCE
Distance from station: NE 450km
Mise à jour: 26/05/2019 07:00
nuageux
nuageux
 Wind from O
Vent: O 6 km/h
Température: 11°C
Point de rosée: 11°C
Humidité: 100%
Baromètre: 1018 hPa
Clouds: nuageux
Visibility: 9 km
Cloud details: partiellement nuageux 305 m
nuageux 4572 m
2019/05/26 05:00 LFPV 260500Z AUTO 27003KT 9000 SCT010 BKN150 11/11 Q1018 NOSIG
LFRS - Nantes Atlantique, FRANCE
Distance from station: SE 106km
Mise à jour: 26/05/2019 07:00
nuageux
nuageux
 Wind from ENE
Vent: ENE 2 km/h
Température: 13°C
Point de rosée: 13°C
Humidité: 100%
Baromètre: 1020 hPa
Clouds: nuageux
Visibility: 10 km
Cloud details: nuageux 396 m
nuageux 549 m
2019/05/26 05:00 LFRS 260500Z AUTO 07001KT 9999 BKN013 BKN018 13/13 Q1020 TEMPO BKN005 BECMG 27010KT